Wetterdaten: Woche 27.02.17 - 05.03.17 (KW9)
Datum Zeit Temp. Aussen Temp. o. S. +5cm Feuchte Auss BlattFeu 1 Luftdruck Regen Sonnenschein Regendauer Solar Windben Empfang
27.02.2017 00:00 10,8 C 11,1 C 9,3 C 80 % 0 lf 1007,5 hPa 0,0 l/m 0,00 h 0,00 h 0 W/m 22,1 km/h (4 Bft) 94,21 %
27.02.2017 01:00 10,8 C 11,1 C 9,1 C 81 % 0 lf 1007,2 hPa 0,0 l/m 0,00 h 0,00 h 0 W/m 19,4 km/h (3 Bft) 96,66 %
27.02.2017 02:00 10,8 C 11,1 C 9,3 C 81 % 0 lf 1006,9 hPa 0,0 l/m 0,00 h 0,00 h 0 W/m 18,8 km/h (3 Bft) 96,71 %
27.02.2017 03:00 11,1 C 11,4 C 9,4 C 80 % 0 lf 1006,0 hPa 0,0 l/m 0,00 h 0,00 h 0 W/m 20,6 km/h (4 Bft) 95,08 %
27.02.2017 04:00 11,1 C 11,2 C 9,4 C 79 % 0 lf 1005,2 hPa 0,0 l/m 0,00 h 0,00 h 0 W/m 19,5 km/h (3 Bft) 96,58 %
27.02.2017 05:00 10,8 C 11,1 C 9,1 C 81 % 0 lf 1004,4 hPa 0,0 l/m 0,00 h 0,00 h 0 W/m 18,8 km/h (3 Bft) 95,37 %
27.02.2017 06:00 10,8 C 11,1 C 9,1 C 80 % 0 lf 1003,7 hPa 0,0 l/m 0,00 h 0,00 h 0 W/m 18,0 km/h (3 Bft) 95,89 %
27.02.2017 07:00 10,8 C 11,2 C 9,1 C 79 % 0 lf 1003,0 hPa 0,0 l/m 0,00 h 0,00 h 5 W/m 25,9 km/h (4 Bft) 97,73 %
27.02.2017 08:00 11,0 C 11,3 C 9,6 C 77 % 0 lf 1002,4 hPa 0,0 l/m 0,00 h 0,00 h 36 W/m 21,3 km/h (4 Bft) 93,12 %
27.02.2017 09:00 11,3 C 12,1 C 10,7 C 75 % 0 lf 1001,6 hPa 0,0 l/m 0,00 h 0,00 h 99 W/m 29,6 km/h (5 Bft) 96,53 %
27.02.2017 10:00 11,6 C 12,5 C 11,4 C 74 % 0 lf 1000,7 hPa 0,0 l/m 0,00 h 0,00 h 122 W/m 24,6 km/h (4 Bft) 97,58 %
27.02.2017 11:00 11,9 C 12,7 C 11,5 C 74 % 0 lf 999,6 hPa 0,0 l/m 0,00 h 0,00 h 106 W/m 24,0 km/h (4 Bft) 94,66 %
27.02.2017 12:00 12,4 C 13,8 C 12,5 C 71 % 0 lf 998,2 hPa 0,0 l/m 0,07 h 0,00 h 195 W/m 30,5 km/h (5 Bft) 95,38 %
27.02.2017 13:00 12,6 C 13,4 C 12,4 C 68 % 0 lf 996,7 hPa 0,0 l/m 0,00 h 0,00 h 155 W/m 35,3 km/h (5 Bft) 98,15 %
27.02.2017 14:00 12,7 C 13,6 C 12,5 C 67 % 0 lf 995,2 hPa 0,0 l/m 0,03 h 0,00 h 160 W/m 35,8 km/h (5 Bft) 95,30 %
27.02.2017 15:00 13,1 C 13,7 C 12,5 C 65 % 0 lf 993,3 hPa 0,0 l/m 0,13 h 0,00 h 127 W/m 36,2 km/h (5 Bft) 94,67 %
27.02.2017 16:00 12,6 C 11,5 C 9,9 C 69 % 1 lf 992,0 hPa 0,2 l/m 0,00 h 0,50 h 15 W/m 36,1 km/h (5 Bft) 96,65 %
27.02.2017 17:00 10,8 C 9,0 C 7,6 C 78 % 10 lf 991,7 hPa 4,6 l/m 0,00 h 0,97 h 5 W/m 30,9 km/h (5 Bft) 95,66 %
27.02.2017 18:00 7,5 C 6,9 C 5,7 C 92 % 15 lf 991,7 hPa 2,8 l/m 0,00 h 0,75 h 3 W/m 34,2 km/h (5 Bft) 97,06 %
27.02.2017 19:00 7,4 C 6,8 C 5,5 C 93 % 15 lf 990,5 hPa 0,2 l/m 0,00 h 0,20 h 2 W/m 33,0 km/h (5 Bft) 95,66 %
27.02.2017 20:00 7,9 C 7,7 C 6,1 C 88 % 5 lf 989,6 hPa 0,0 l/m 0,00 h 0,00 h 2 W/m 33,2 km/h (5 Bft) 94,38 %
27.02.2017 21:00 8,3 C 8,4 C 5,9 C 80 % 0 lf 989,4 hPa 0,0 l/m 0,00 h 0,00 h 2 W/m 34,2 km/h (5 Bft) 98,79 %
27.02.2017 22:00 8,2 C 8,3 C 6,6 C 79 % 0 lf 989,6 hPa 0,0 l/m 0,00 h 0,00 h 2 W/m 31,5 km/h (5 Bft) 95,68 %
27.02.2017 23:00 8,0 C 8,1 C 6,1 C 80 % 0 lf 989,4 hPa 0,0 l/m 0,00 h 0,00 h 0 W/m 31,8 km/h (5 Bft) 94,59 %
28.02.2017 00:00 7,0 C 7,0 C 5,1 C 80 % 0 lf 989,6 hPa 0,0 l/m 0,00 h 0,07 h 0 W/m 25,3 km/h (4 Bft) 96,07 %
28.02.2017 01:00 5,7 C 5,5 C 3,6 C 84 % 0 lf 989,2 hPa 0,0 l/m 0,00 h 0,00 h 2 W/m 25,7 km/h (4 Bft) 95,16 %
28.02.2017 02:00 5,4 C 5,1 C 3,3 C 85 % 9 lf 989,2 hPa 0,2 l/m 0,00 h 0,67 h 0 W/m 40,5 km/h (6 Bft) 96,44 %
28.02.2017 03:00 5,0 C 5,1 C 2,8 C 83 % 2 lf 989,0 hPa 0,0 l/m 0,00 h 0,43 h 1 W/m 29,4 km/h (5 Bft) 95,65 %
28.02.2017 04:00 5,1 C 5,2 C 3,3 C 81 % 0 lf 989,2 hPa 0,0 l/m 0,00 h 0,00 h 0 W/m 24,9 km/h (4 Bft) 95,88 %
28.02.2017 05:00 4,8 C 4,9 C 2,9 C 82 % 0 lf 989,3 hPa 0,0 l/m 0,00 h 0,00 h 0 W/m 23,1 km/h (4 Bft) 95,45 %
28.02.2017 06:00 5,1 C 5,6 C 3,9 C 79 % 0 lf 989,5 hPa 0,0 l/m 0,00 h 0,00 h 0 W/m 33,6 km/h (5 Bft) 96,95 %
28.02.2017 07:00 5,3 C 5,6 C 3,9 C 76 % 0 lf 989,8 hPa 0,0 l/m 0,00 h 0,03 h 10 W/m 34,5 km/h (5 Bft) 96,73 %
28.02.2017 08:00 5,5 C 6,2 C 4,7 C 77 % 0 lf 990,1 hPa 0,0 l/m 0,20 h 0,00 h 71 W/m 33,0 km/h (5 Bft) 94,09 %
28.02.2017 09:00 6,3 C 7,7 C 6,1 C 75 % 0 lf 990,2 hPa 0,0 l/m 0,33 h 0,00 h 155 W/m 39,3 km/h (6 Bft) 94,95 %
28.02.2017 10:00 6,9 C 8,9 C 6,9 C 73 % 0 lf 990,1 hPa 0,0 l/m 0,23 h 0,00 h 212 W/m 42,1 km/h (6 Bft) 97,23 %
28.02.2017 11:00 8,2 C 13,8 C 8,9 C 68 % 0 lf 989,9 hPa 0,0 l/m 0,93 h 0,00 h 494 W/m 43,3 km/h (6 Bft) 93,67 %
28.02.2017 12:00 8,8 C 13,1 C 8,7 C 65 % 0 lf 989,5 hPa 0,0 l/m 0,97 h 0,00 h 714 W/m 39,0 km/h (6 Bft) 97,13 %
28.02.2017 13:00 8,1 C 10,1 C 8,1 C 70 % 0 lf 988,9 hPa 0,0 l/m 0,98 h 0,00 h 637 W/m 29,7 km/h (5 Bft) 97,04 %
28.02.2017 14:00 8,1 C 9,3 C 8,3 C 71 % 0 lf 988,2 hPa 0,0 l/m 0,98 h 0,00 h 561 W/m 21,1 km/h (4 Bft) 94,73 %
28.02.2017 15:00 8,1 C 9,0 C 7,8 C 69 % 0 lf 988,2 hPa 0,0 l/m 1,00 h 0,00 h 404 W/m 23,8 km/h (4 Bft) 96,72 %
28.02.2017 16:00 7,5 C 7,4 C 6,1 C 73 % 3 lf 988,8 hPa 0,8 l/m 1,00 h 0,20 h 260 W/m 24,6 km/h (4 Bft) 95,87 %
28.02.2017 17:00 4,2 C 3,6 C 2,6 C 89 % 15 lf 990,3 hPa 1,6 l/m 0,10 h 0,93 h 22 W/m 17,9 km/h (3 Bft) 96,11 %
28.02.2017 18:00 3,7 C 3,2 C 2,1 C 93 % 15 lf 991,4 hPa 0,2 l/m 0,00 h 0,17 h 6 W/m 15,8 km/h (3 Bft) 96,51 %
28.02.2017 19:00 3,3 C 2,8 C 1,5 C 93 % 15 lf 992,7 hPa 0,0 l/m 0,00 h 0,00 h 3 W/m 16,1 km/h (3 Bft) 94,90 %
28.02.2017 20:00 2,9 C 2,6 C 1,1 C 94 % 15 lf 993,6 hPa 0,0 l/m 0,00 h 0,03 h 0 W/m 15,5 km/h (3 Bft) 95,78 %
28.02.2017 21:00 3,2 C 3,0 C 1,5 C 94 % 15 lf 993,9 hPa 0,0 l/m 0,00 h 0,00 h 0 W/m 18,0 km/h (3 Bft) 97,65 %
28.02.2017 22:00 3,8 C 3,6 C 2,4 C 93 % 9 lf 994,3 hPa 0,0 l/m 0,00 h 0,17 h 0 W/m 25,2 km/h (4 Bft) 94,45 %
28.02.2017 23:00 3,4 C 2,6 C 1,4 C 91 % 15 lf 994,6 hPa 1,4 l/m 0,00 h 1,00 h 0 W/m 21,1 km/h (4 Bft) 94,80 %
01.03.2017 00:00 2,2 C 1,8 C 0,7 C 93 % 15 lf 994,9 hPa 0,8 l/m 0,00 h 0,98 h 0 W/m 14,1 km/h (3 Bft) 97,36 %
01.03.2017 01:00 1,8 C 1,8 C 0,8 C 95 % 15 lf 995,1 hPa 0,0 l/m 0,00 h 0,23 h 0 W/m 10,9 km/h (2 Bft) 96,37 %
01.03.2017 02:00 2,2 C 2,4 C 1,2 C 96 % 15 lf 995,1 hPa 0,6 l/m 0,00 h 0,70 h 0 W/m 9,5 km/h (2 Bft) 96,30 %
01.03.2017 03:00 3,4 C 3,8 C 2,6 C 97 % 15 lf 994,8 hPa 0,4 l/m 0,00 h 0,67 h 0 W/m 13,4 km/h (3 Bft) 94,24 %
01.03.2017 04:00 4,5 C 4,6 C 3,3 C 97 % 15 lf 994,5 hPa 0,4 l/m 0,00 h 0,53 h 0 W/m 26,5 km/h (4 Bft) 95,79 %
01.03.2017 05:00 5,2 C 5,0 C 3,9 C 96 % 14 lf 994,9 hPa 0,0 l/m 0,00 h 0,50 h 0 W/m 32,1 km/h (5 Bft) 97,16 %
01.03.2017 06:00 5,6 C 5,5 C 3,9 C 95 % 11 lf 995,5 hPa 0,4 l/m 0,00 h 0,60 h 0 W/m 30,8 km/h (5 Bft) 96,48 %
01.03.2017 07:00 5,2 C 4,6 C 3,3 C 95 % 15 lf 996,7 hPa 0,6 l/m 0,00 h 0,90 h 9 W/m 31,5 km/h (5 Bft) 95,87 %
01.03.2017 08:00 5,3 C 5,5 C 4,0 C 94 % 14 lf 997,8 hPa 0,0 l/m 0,40 h 0,37 h 83 W/m 31,1 km/h (5 Bft) 93,20 %
01.03.2017 09:00 6,6 C 9,5 C 6,1 C 88 % 1 lf 998,8 hPa 0,0 l/m 0,93 h 0,00 h 252 W/m 31,7 km/h (5 Bft) 98,85 %
01.03.2017 10:00 7,4 C 11,8 C 6,9 C 82 % 0 lf 999,8 hPa 0,0 l/m 0,83 h 0,00 h 332 W/m 30,7 km/h (5 Bft) 95,76 %
01.03.2017 11:00 8,1 C 10,2 C 8,0 C 76 % 0 lf 1000,6 hPa 0,0 l/m 0,27 h 0,00 h 187 W/m 27,3 km/h (4 Bft) 94,30 %
01.03.2017 12:00 7,8 C 9,6 C 7,7 C 81 % 0 lf 1001,1 hPa 0,0 l/m 0,23 h 0,13 h 217 W/m 29,1 km/h (5 Bft) 97,52 %
01.03.2017 13:00 7,7 C 9,9 C 7,4 C 84 % 0 lf 1001,2 hPa 0,0 l/m 0,13 h 0,00 h 164 W/m 25,7 km/h (4 Bft) 96,37 %
01.03.2017 14:00 6,6 C 6,8 C 5,4 C 88 % 12 lf 1001,2 hPa 0,4 l/m 0,00 h 0,73 h 111 W/m 25,9 km/h (4 Bft) 94,16 %
01.03.2017 15:00 7,6 C 10,7 C 6,4 C 88 % 3 lf 1001,0 hPa 0,0 l/m 0,93 h 0,13 h 373 W/m 17,1 km/h (3 Bft) 98,52 %
01.03.2017 16:00 8,3 C 9,1 C 7,0 C 85 % 0 lf 1000,7 hPa 0,0 l/m 0,13 h 0,10 h 101 W/m 19,4 km/h (3 Bft) 94,35 %
01.03.2017 17:00 7,8 C 7,9 C 6,4 C 85 % 0 lf 1000,5 hPa 0,0 l/m 0,00 h 0,10 h 24 W/m 19,0 km/h (3 Bft) 96,60 %
01.03.2017 18:00 7,4 C 7,3 C 5,7 C 88 % 0 lf 1000,2 hPa 0,0 l/m 0,00 h 0,33 h 3 W/m 13,7 km/h (3 Bft) 95,17 %
01.03.2017 19:00 7,0 C 6,2 C 4,7 C 89 % 7 lf 999,8 hPa 0,2 l/m 0,00 h 0,97 h 2 W/m 17,1 km/h (3 Bft) 95,51 %
01.03.2017 20:00 6,4 C 5,6 C 4,4 C 92 % 12 lf 998,7 hPa 0,2 l/m 0,00 h 0,93 h 0 W/m 12,6 km/h (3 Bft) 96,44 %
01.03.2017 21:00 5,9 C 5,6 C 4,4 C 94 % 14 lf 997,7 hPa 0,4 l/m 0,00 h 0,80 h 0 W/m 16,0 km/h (3 Bft) 97,30 %
01.03.2017 22:00 5,8 C 5,7 C 4,4 C 96 % 15 lf 996,9 hPa 0,8 l/m 0,00 h 0,90 h 0 W/m 15,1 km/h (3 Bft) 94,52 %
01.03.2017 23:00 6,2 C 6,4 C 5,1 C 97 % 15 lf 996,5 hPa 0,2 l/m 0,00 h 0,37 h 0 W/m 11,2 km/h (2 Bft) 95,82 %
02.03.2017 00:00 7,7 C 7,8 C 6,4 C 98 % 15 lf 997,0 hPa 0,6 l/m 0,00 h 0,80 h 0 W/m 30,9 km/h (5 Bft) 96,57 %
02.03.2017 01:00 7,3 C 6,9 C 5,4 C 97 % 15 lf 997,9 hPa 0,0 l/m 0,00 h 0,27 h 0 W/m 28,5 km/h (4 Bft) 95,86 %
02.03.2017 02:00 6,9 C 6,6 C 4,9 C 96 % 15 lf 998,1 hPa 0,6 l/m 0,00 h 0,40 h 0 W/m 26,1 km/h (4 Bft) 95,66 %
02.03.2017 03:00 7,2 C 6,6 C 5,3 C 93 % 13 lf 998,2 hPa 0,2 l/m 0,00 h 0,50 h 0 W/m 43,0 km/h (6 Bft) 94,31 %
02.03.2017 04:00 7,5 C 6,4 C 5,4 C 82 % 0 lf 999,0 hPa 0,0 l/m 0,00 h 0,10 h 0 W/m 51,1 km/h (7 Bft) 96,86 %
02.03.2017 05:00 6,9 C 6,8 C 4,8 C 75 % 0 lf 1000,3 hPa 0,0 l/m 0,00 h 0,10 h 1 W/m 55,3 km/h (7 Bft) 94,78 %
02.03.2017 06:00 6,3 C 6,7 C 4,4 C 72 % 0 lf 1001,5 hPa 0,0 l/m 0,00 h 0,00 h 0 W/m 43,2 km/h (6 Bft) 98,12 %
02.03.2017 07:00 6,2 C 6,4 C 4,6 C 74 % 0 lf 1002,2 hPa 0,0 l/m 0,00 h 0,00 h 9 W/m 42,4 km/h (6 Bft) 94,59 %
02.03.2017 08:00 6,6 C 7,1 C 5,3 C 71 % 0 lf 1003,1 hPa 0,0 l/m 0,07 h 0,03 h 49 W/m 50,9 km/h (7 Bft) 95,24 %
02.03.2017 09:00 7,2 C 8,7 C 6,7 C 70 % 0 lf 1004,3 hPa 0,0 l/m 0,40 h 0,00 h 168 W/m 50,6 km/h (7 Bft) 98,36 %
02.03.2017 10:00 7,4 C 8,4 C 6,8 C 69 % 0 lf 1005,7 hPa 0,0 l/m 0,23 h 0,00 h 143 W/m 47,9 km/h (6 Bft) 95,30 %
02.03.2017 11:00 7,3 C 7,8 C 6,5 C 71 % 0 lf 1007,2 hPa 0,0 l/m 0,00 h 0,00 h 77 W/m 39,2 km/h (6 Bft) 94,59 %
02.03.2017 12:00 7,4 C 8,0 C 6,7 C 71 % 0 lf 1008,4 hPa 0,0 l/m 0,00 h 0,03 h 79 W/m 34,9 km/h (5 Bft) 97,57 %
02.03.2017 13:00 7,6 C 8,4 C 6,9 C 74 % 1 lf 1008,9 hPa 0,0 l/m 0,03 h 0,17 h 128 W/m 31,4 km/h (5 Bft) 95,23 %
02.03.2017 14:00 7,9 C 9,5 C 7,8 C 73 % 1 lf 1009,3 hPa 0,0 l/m 0,17 h 0,20 h 198 W/m 35,7 km/h (5 Bft) 95,08 %
02.03.2017 15:00 8,7 C 10,2 C 7,9 C 69 % 1 lf 1009,9 hPa 0,0 l/m 0,27 h 0,23 h 168 W/m 30,8 km/h (5 Bft) 96,73 %
02.03.2017 16:00 8,5 C 9,1 C 7,8 C 69 % 0 lf 1010,6 hPa 0,0 l/m 0,00 h 0,00 h 80 W/m 36,7 km/h (5 Bft) 95,09 %
02.03.2017 17:00 8,5 C 8,7 C 7,0 C 70 % 0 lf 1011,6 hPa 0,0 l/m 0,00 h 0,00 h 24 W/m 29,9 km/h (5 Bft) 97,15 %
02.03.2017 18:00 8,2 C 8,3 C 6,5 C 72 % 0 lf 1012,6 hPa 0,0 l/m 0,00 h 0,00 h 3 W/m 23,5 km/h (4 Bft) 95,87 %
02.03.2017 19:00 7,9 C 8,0 C 6,1 C 73 % 0 lf 1013,5 hPa 0,0 l/m 0,00 h 0,00 h 0 W/m 19,4 km/h (3 Bft) 93,81 %
02.03.2017 20:00 7,5 C 7,2 C 5,2 C 74 % 0 lf 1014,0 hPa 0,0 l/m 0,00 h 0,00 h 2 W/m 16,2 km/h (3 Bft) 97,44 %
02.03.2017 21:00 6,5 C 6,0 C 3,9 C 76 % 0 lf 1014,3 hPa 0,0 l/m 0,00 h 0,00 h 0 W/m 12,9 km/h (3 Bft) 97,65 %
02.03.2017 22:00 6,0 C 5,9 C 3,7 C 78 % 0 lf 1014,6 hPa 0,0 l/m 0,00 h 0,00 h 1 W/m 13,0 km/h (3 Bft) 92,32 %
02.03.2017 23:00 5,6 C 5,3 C 2,9 C 79 % 0 lf 1014,7 hPa 0,0 l/m 0,00 h 0,00 h 0 W/m 10,9 km/h (2 Bft) 96,65 %
03.03.2017 00:00 4,8 C 4,2 C 1,5 C 81 % 0 lf 1014,8 hPa 0,0 l/m 0,00 h 0,00 h 2 W/m 9,1 km/h (2 Bft) 95,32 %
03.03.2017 01:00 4,0 C 3,9 C 1,0 C 84 % 0 lf 1014,5 hPa 0,0 l/m 0,00 h 0,00 h 2 W/m 9,2 km/h (2 Bft) 97,01 %
03.03.2017 02:00 3,7 C 4,0 C 1,4 C 85 % 0 lf 1014,0 hPa 0,0 l/m 0,00 h 0,00 h 2 W/m 13,9 km/h (3 Bft) 95,59 %
03.03.2017 03:00 3,6 C 3,8 C 1,3 C 84 % 0 lf 1013,0 hPa 0,0 l/m 0,00 h 0,00 h 2 W/m 11,9 km/h (2 Bft) 95,04 %
03.03.2017 04:00 3,1 C 3,1 C 1,1 C 84 % 0 lf 1012,1 hPa 0,0 l/m 0,00 h 0,00 h 2 W/m 10,7 km/h (2 Bft) 96,79 %
03.03.2017 05:00 2,6 C 2,5 C 0,6 C 86 % 0 lf 1011,4 hPa 0,0 l/m 0,00 h 0,00 h 2 W/m 10,0 km/h (2 Bft) 96,01 %
03.03.2017 06:00 1,9 C 1,6 C -0,6 C 87 % 0 lf 1010,8 hPa 0,0 l/m 0,00 h 0,00 h 4 W/m 8,2 km/h (2 Bft) 97,44 %
03.03.2017 07:00 1,4 C 2,0 C -0,1 C 90 % 0 lf 1010,4 hPa 0,0 l/m 0,53 h 0,00 h 37 W/m 9,9 km/h (2 Bft) 93,39 %
03.03.2017 08:00 2,2 C 4,0 C 1,8 C 90 % 0 lf 1010,1 hPa 0,0 l/m 0,93 h 0,00 h 116 W/m 12,0 km/h (2 Bft) 96,65 %
03.03.2017 09:00 3,9 C 6,4 C 4,8 C 89 % 0 lf 1009,4 hPa 0,0 l/m 1,00 h 0,00 h 199 W/m 14,9 km/h (3 Bft) 97,51 %
03.03.2017 10:00 6,2 C 8,3 C 7,1 C 84 % 0 lf 1008,2 hPa 0,0 l/m 0,97 h 0,00 h 246 W/m 20,2 km/h (4 Bft) 93,38 %
03.03.2017 11:00 8,3 C 12,2 C 9,7 C 78 % 0 lf 1006,9 hPa 0,0 l/m 0,97 h 0,00 h 433 W/m 24,9 km/h (4 Bft) 96,48 %
03.03.2017 12:00 9,6 C 11,1 C 10,1 C 71 % 0 lf 1005,7 hPa 0,0 l/m 0,47 h 0,03 h 249 W/m 26,3 km/h (4 Bft) 97,02 %
03.03.2017 13:00 10,0 C 11,5 C 10,5 C 68 % 0 lf 1004,3 hPa 0,0 l/m 0,43 h 0,00 h 237 W/m 26,0 km/h (4 Bft) 94,85 %
03.03.2017 14:00 10,4 C 11,4 C 10,4 C 64 % 0 lf 1003,1 hPa 0,0 l/m 0,00 h 0,00 h 149 W/m 23,8 km/h (4 Bft) 94,46 %
03.03.2017 15:00 10,8 C 11,9 C 10,7 C 64 % 0 lf 1001,9 hPa 0,0 l/m 0,10 h 0,00 h 160 W/m 23,8 km/h (4 Bft) 97,95 %
03.03.2017 16:00 10,9 C 11,5 C 10,0 C 64 % 0 lf 1000,8 hPa 0,0 l/m 0,00 h 0,00 h 87 W/m 25,9 km/h (4 Bft) 94,72 %
03.03.2017 17:00 10,7 C 10,9 C 9,0 C 65 % 0 lf 999,7 hPa 0,0 l/m 0,00 h 0,00 h 33 W/m 28,3 km/h (4 Bft) 96,30 %
03.03.2017 18:00 10,1 C 10,1 C 7,9 C 68 % 0 lf 999,0 hPa 0,0 l/m 0,00 h 0,00 h 4 W/m 26,0 km/h (4 Bft) 95,78 %
03.03.2017 19:00 9,7 C 10,0 C 7,8 C 71 % 0 lf 998,5 hPa 0,0 l/m 0,00 h 0,00 h 1 W/m 26,1 km/h (4 Bft) 95,48 %
03.03.2017 20:00 9,4 C 9,4 C 7,5 C 72 % 0 lf 998,0 hPa 0,0 l/m 0,00 h 0,00 h 0 W/m 26,2 km/h (4 Bft) 97,18 %
03.03.2017 21:00 9,0 C 9,1 C 6,9 C 73 % 0 lf 997,6 hPa 0,0 l/m 0,00 h 0,00 h 1 W/m 23,9 km/h (4 Bft) 95,97 %
03.03.2017 22:00 8,6 C 8,8 C 6,6 C 73 % 0 lf 997,1 hPa 0,0 l/m 0,00 h 0,00 h 0 W/m 20,5 km/h (4 Bft) 93,61 %
03.03.2017 23:00 8,3 C 8,3 C 6,4 C 73 % 0 lf 996,6 hPa 0,0 l/m 0,00 h 0,00 h 0 W/m 19,1 km/h (3 Bft) 98,32 %
04.03.2017 00:00 8,2 C 8,3 C 6,1 C 74 % 0 lf 996,2 hPa 0,0 l/m 0,00 h 0,00 h 0 W/m 18,7 km/h (3 Bft) 94,80 %
04.03.2017 01:00 8,3 C 8,5 C 6,6 C 74 % 0 lf 995,7 hPa 0,0 l/m 0,00 h 0,00 h 0 W/m 20,5 km/h (4 Bft) 94,80 %
04.03.2017 02:00 8,4 C 8,4 C 6,7 C 75 % 0 lf 995,1 hPa 0,0 l/m 0,00 h 0,00 h 0 W/m 22,8 km/h (4 Bft) 96,96 %
04.03.2017 03:00 8,5 C 8,8 C 6,7 C 76 % 0 lf 994,6 hPa 0,0 l/m 0,00 h 0,00 h 0 W/m 23,0 km/h (4 Bft) 95,09 %
04.03.2017 04:00 8,6 C 8,9 C 6,7 C 76 % 0 lf 994,1 hPa 0,0 l/m 0,00 h 0,00 h 0 W/m 22,2 km/h (4 Bft) 96,94 %
04.03.2017 05:00 8,4 C 8,4 C 6,7 C 78 % 0 lf 993,9 hPa 0,0 l/m 0,00 h 0,00 h 0 W/m 16,4 km/h (3 Bft) 95,30 %
04.03.2017 06:00 8,3 C 8,3 C 6,5 C 80 % 0 lf 993,7 hPa 0,0 l/m 0,00 h 0,00 h 0 W/m 14,9 km/h (3 Bft) 94,66 %
04.03.2017 07:00 8,1 C 8,4 C 6,6 C 82 % 0 lf 993,6 hPa 0,0 l/m 0,00 h 0,00 h 15 W/m 8,7 km/h (2 Bft) 96,94 %
04.03.2017 08:00 8,5 C 9,5 C 7,8 C 83 % 0 lf 993,5 hPa 0,0 l/m 0,00 h 0,00 h 65 W/m 10,6 km/h (2 Bft) 97,15 %
04.03.2017 09:00 10,0 C 11,7 C 10,2 C 80 % 0 lf 993,1 hPa 0,0 l/m 0,00 h 0,00 h 128 W/m 11,6 km/h (2 Bft) 93,09 %
04.03.2017 10:00 11,3 C 13,0 C 11,8 C 77 % 0 lf 992,3 hPa 0,0 l/m 0,00 h 0,00 h 166 W/m 9,6 km/h (2 Bft) 97,43 %
04.03.2017 11:00 12,3 C 13,5 C 12,6 C 75 % 0 lf 991,7 hPa 0,0 l/m 0,00 h 0,07 h 141 W/m 9,9 km/h (2 Bft) 97,36 %
04.03.2017 12:00 12,9 C 14,3 C 13,4 C 74 % 0 lf 991,4 hPa 0,0 l/m 0,17 h 0,00 h 241 W/m 13,5 km/h (3 Bft) 91,64 %
04.03.2017 13:00 13,8 C 14,8 C 13,9 C 73 % 0 lf 990,9 hPa 0,0 l/m 1,00 h 0,00 h 467 W/m 13,2 km/h (3 Bft) 96,94 %
04.03.2017 14:00 14,3 C 15,9 C 14,9 C 71 % 0 lf 990,7 hPa 0,0 l/m 0,77 h 0,00 h 408 W/m 7,8 km/h (2 Bft) 96,86 %
04.03.2017 15:00 14,9 C 16,3 C 14,8 C 69 % 0 lf 990,9 hPa 0,0 l/m 0,00 h 0,00 h 156 W/m 7,3 km/h (2 Bft) 94,30 %
04.03.2017 16:00 14,8 C 16,1 C 13,4 C 70 % 0 lf 990,4 hPa 0,0 l/m 0,03 h 0,00 h 107 W/m 6,2 km/h (2 Bft) 95,87 %
04.03.2017 17:00 14,1 C 13,6 C 10,7 C 72 % 0 lf 990,4 hPa 0,0 l/m 0,30 h 0,00 h 71 W/m 5,0 km/h (1 Bft) 96,87 %
04.03.2017 18:00 12,7 C 11,5 C 8,7 C 76 % 0 lf 990,5 hPa 0,0 l/m 0,00 h 0,00 h 6 W/m 5,7 km/h (1 Bft) 94,74 %
04.03.2017 19:00 8,9 C 7,6 C 6,4 C 86 % 14 lf 992,1 hPa 2,8 l/m 0,00 h 0,90 h 1 W/m 34,7 km/h (5 Bft) 96,87 %
04.03.2017 20:00 7,7 C 7,2 C 6,1 C 94 % 15 lf 992,0 hPa 1,8 l/m 0,00 h 0,98 h 0 W/m 11,4 km/h (2 Bft) 94,63 %
04.03.2017 21:00 7,7 C 7,2 C 6,1 C 95 % 15 lf 992,4 hPa 2,6 l/m 0,00 h 1,00 h 0 W/m 9,5 km/h (2 Bft) 95,94 %
04.03.2017 22:00 7,5 C 7,2 C 6,1 C 96 % 15 lf 992,8 hPa 0,0 l/m 0,00 h 0,63 h 0 W/m 12,1 km/h (2 Bft) 97,86 %
04.03.2017 23:00 7,4 C 7,2 C 6,1 C 97 % 15 lf 993,2 hPa 0,4 l/m 0,00 h 0,90 h 0 W/m 15,4 km/h (3 Bft) 93,46 %
05.03.2017 00:00 6,9 C 6,8 C 5,3 C 97 % 15 lf 994,8 hPa 0,0 l/m 0,00 h 0,47 h 0 W/m 20,9 km/h (4 Bft) 96,16 %
05.03.2017 01:00 6,6 C 6,3 C 5,0 C 97 % 15 lf 995,7 hPa 0,2 l/m 0,00 h 0,17 h 0 W/m 13,7 km/h (3 Bft) 97,08 %
05.03.2017 02:00 6,4 C 6,1 C 5,0 C 96 % 14 lf 996,2 hPa 0,0 l/m 0,00 h 0,13 h 0 W/m 19,2 km/h (3 Bft) 95,80 %
05.03.2017 03:00 6,7 C 6,7 C 5,0 C 94 % 1 lf 996,5 hPa 0,0 l/m 0,00 h 0,03 h 0 W/m 23,1 km/h (4 Bft) 95,94 %
05.03.2017 04:00 7,1 C 6,7 C 5,4 C 91 % 0 lf 997,1 hPa 0,0 l/m 0,00 h 0,00 h 0 W/m 24,9 km/h (4 Bft) 95,19 %
05.03.2017 05:00 7,1 C 6,7 C 5,0 C 90 % 0 lf 997,8 hPa 0,0 l/m 0,00 h 0,03 h 0 W/m 25,5 km/h (4 Bft) 95,24 %
05.03.2017 06:00 6,8 C 6,8 C 5,0 C 90 % 0 lf 998,2 hPa 0,0 l/m 0,00 h 0,00 h 0 W/m 22,3 km/h (4 Bft) 96,44 %
05.03.2017 07:00 7,1 C 7,3 C 5,6 C 89 % 0 lf 998,9 hPa 0,0 l/m 0,00 h 0,00 h 11 W/m 24,6 km/h (4 Bft) 96,65 %
05.03.2017 08:00 7,2 C 8,2 C 6,1 C 87 % 0 lf 999,4 hPa 0,0 l/m 0,27 h 0,00 h 98 W/m 23,4 km/h (4 Bft) 94,73 %
05.03.2017 09:00 8,0 C 12,7 C 8,7 C 84 % 0 lf 999,3 hPa 0,0 l/m 0,83 h 0,00 h 292 W/m 26,3 km/h (4 Bft) 96,94 %
05.03.2017 10:00 9,5 C 15,1 C 10,5 C 75 % 0 lf 998,9 hPa 0,0 l/m 1,00 h 0,00 h 419 W/m 29,0 km/h (5 Bft) 95,80 %
05.03.2017 11:00 10,3 C 14,6 C 11,3 C 69 % 0 lf 998,6 hPa 0,0 l/m 0,77 h 0,00 h 432 W/m 34,4 km/h (5 Bft) 93,52 %
05.03.2017 12:00 11,0 C 15,7 C 11,0 C 65 % 0 lf 998,2 hPa 0,0 l/m 0,97 h 0,00 h 557 W/m 36,6 km/h (5 Bft) 98,09 %
05.03.2017 13:00 11,2 C 14,4 C 11,0 C 61 % 0 lf 997,3 hPa 0,0 l/m 1,00 h 0,00 h 572 W/m 33,8 km/h (5 Bft) 94,66 %
05.03.2017 14:00 10,9 C 12,0 C 10,4 C 60 % 0 lf 996,2 hPa 0,0 l/m 0,00 h 0,03 h 214 W/m 31,1 km/h (5 Bft) 95,23 %
05.03.2017 15:00 9,4 C 8,0 C 6,7 C 69 % 3 lf 995,7 hPa 0,4 l/m 0,00 h 0,93 h 99 W/m 33,0 km/h (5 Bft) 98,22 %
05.03.2017 16:00 7,3 C 6,1 C 5,0 C 86 % 15 lf 995,5 hPa 1,6 l/m 0,00 h 1,00 h 31 W/m 20,2 km/h (4 Bft) 95,80 %
05.03.2017 17:00 6,7 C 5,9 C 4,7 C 90 % 8 lf 995,3 hPa 0,8 l/m 0,00 h 1,00 h 14 W/m 23,7 km/h (4 Bft) 94,45 %
05.03.2017 18:00 6,1 C 5,2 C 4,1 C 92 % 15 lf 995,5 hPa 1,4 l/m 0,00 h 1,00 h 2 W/m 23,7 km/h (4 Bft) 96,09 %
05.03.2017 19:00 5,5 C 5,0 C 3,9 C 93 % 15 lf 995,8 hPa 0,8 l/m 0,00 h 1,00 h 0 W/m 14,0 km/h (3 Bft) 96,01 %
05.03.2017 20:00 5,3 C 5,0 C 3,9 C 95 % 15 lf 995,8 hPa 0,8 l/m 0,00 h 1,00 h 0 W/m 11,3 km/h (2 Bft) 96,30 %
05.03.2017 21:00 5,2 C 5,0 C 3,9 C 96 % 15 lf 996,2 hPa 0,2 l/m 0,00 h 0,50 h 0 W/m 9,2 km/h (2 Bft) 94,94 %
05.03.2017 22:00 5,3 C 5,0 C 3,9 C 96 % 15 lf 996,7 hPa 0,0 l/m 0,00 h 0,00 h 0 W/m 12,3 km/h (3 Bft) 97,01 %
05.03.2017 23:00 5,6 C 5,4 C 4,1 C 95 % 8 lf 997,2 hPa 0,0 l/m 0,00 h 0,00 h 0 W/m 18,0 km/h (3 Bft) 95,94 %
Min-Datum _ 03.03.17 03.03.17 03.03.17 05.03.17 27.02.17 28.02.17 - - - - 04.03.17 04.03.17
_ Min-Zeit 07:04 06:46 05:54 13:54 00:00 14:36 - - - - 17:00 12:40
Minimum _ 1,4 C 1,1 C -0,6 C 57 % 0 lf 988,1 hPa - - - - 0,0 km/h (0 Bft) 39,39 %
Max-Datum _ 04.03.17 28.02.17 04.03.17 02.03.17 27.02.17 03.03.17 27.02.17 27.02.17 27.02.17 28.02.17 02.03.17 27.02.17
_ Max-Zeit 15:40 12:08 14:36 00:00 17:20 00:22 17:28 12:32 16:20 12:14 05:32 01:20
Maximum _ 15,1 C 17,2 C 15,6 C 98 % 15 lf 1014,9 hPa 4,6 l/m 0,03 h 0,03 h 930 W/m 81,6 km/h
W-SW (9 Bft)
100,00 %
Durchschnitt _ 7,7 C 8,2 C 6,4 C 81 % 4 lf 998,4 hPa #32,6 l/m #24:30 h #31:51 h 136 W/m 23,7 km/h (4 Bft) 95,88 %
© 2017 W. Hausmann